sensor_id;sensor_type;location;lat;lon;timestamp;P1;durP1;ratioP1;P2;durP2;ratioP2
5774;SDS011;2913;51.120;6.772;2022-11-18T00:01:32;32.92;;;20.95;;
5774;SDS011;2913;51.120;6.772;2022-11-18T00:03:57;56.58;;;41.03;;
5774;SDS011;2913;51.120;6.772;2022-11-18T00:06:26;103.00;;;59.30;;
5774;SDS011;2913;51.120;6.772;2022-11-18T00:08:53;36.50;;;23.10;;
5774;SDS011;2913;51.120;6.772;2022-11-18T00:11:20;52.30;;;36.53;;
5774;SDS011;2913;51.120;6.772;2022-11-18T00:14:10;58.47;;;35.15;;
5774;SDS011;2913;51.120;6.772;2022-11-18T00:16:48;12.80;;;6.75;;
5774;SDS011;2913;51.120;6.772;2022-11-18T00:19:25;11.52;;;3.78;;
5774;SDS011;2913;51.120;6.772;2022-11-18T00:21:52;39.88;;;27.10;;
5774;SDS011;2913;51.120;6.772;2022-11-18T00:24:18;17.40;;;11.75;;
5774;SDS011;2913;51.120;6.772;2022-11-18T00:26:44;16.35;;;6.65;;
5774;SDS011;2913;51.120;6.772;2022-11-18T00:29:10;25.17;;;19.48;;
5774;SDS011;2913;51.120;6.772;2022-11-18T00:31:36;11.05;;;7.32;;
5774;SDS011;2913;51.120;6.772;2022-11-18T00:34:02;57.60;;;37.28;;
5774;SDS011;2913;51.120;6.772;2022-11-18T00:36:28;112.78;;;60.85;;
5774;SDS011;2913;51.120;6.772;2022-11-18T00:38:54;88.78;;;52.60;;
5774;SDS011;2913;51.120;6.772;2022-11-18T00:41:19;45.20;;;30.02;;
5774;SDS011;2913;51.120;6.772;2022-11-18T00:43:48;28.80;;;15.85;;
5774;SDS011;2913;51.120;6.772;2022-11-18T00:46:13;90.47;;;47.70;;
5774;SDS011;2913;51.120;6.772;2022-11-18T00:48:39;113.60;;;54.10;;
5774;SDS011;2913;51.120;6.772;2022-11-18T00:51:07;14.15;;;7.55;;
5774;SDS011;2913;51.120;6.772;2022-11-18T00:53:39;18.73;;;10.02;;
5774;SDS011;2913;51.120;6.772;2022-11-18T00:56:06;32.85;;;25.38;;
5774;SDS011;2913;51.120;6.772;2022-11-18T00:58:32;66.95;;;38.67;;
5774;SDS011;2913;51.120;6.772;2022-11-18T01:00:58;40.13;;;25.42;;
5774;SDS011;2913;51.120;6.772;2022-11-18T01:03:24;11.43;;;3.38;;
5774;SDS011;2913;51.120;6.772;2022-11-18T01:05:55;18.40;;;12.55;;
5774;SDS011;2913;51.120;6.772;2022-11-18T01:08:23;9.40;;;4.57;;
5774;SDS011;2913;51.120;6.772;2022-11-18T01:10:49;10.00;;;3.00;;
5774;SDS011;2913;51.120;6.772;2022-11-18T01:13:17;10.00;;;2.83;;
5774;SDS011;2913;51.120;6.772;2022-11-18T01:15:51;10.75;;;3.05;;
5774;SDS011;2913;51.120;6.772;2022-11-18T01:18:19;12.25;;;2.90;;
5774;SDS011;2913;51.120;6.772;2022-11-18T01:20:49;8.65;;;2.92;;
5774;SDS011;2913;51.120;6.772;2022-11-18T01:23:15;10.15;;;3.17;;
5774;SDS011;2913;51.120;6.772;2022-11-18T01:25:44;6.65;;;2.53;;
5774;SDS011;2913;51.120;6.772;2022-11-18T01:28:12;12.35;;;3.30;;
5774;SDS011;2913;51.120;6.772;2022-11-18T01:30:43;12.35;;;3.10;;
5774;SDS011;2913;51.120;6.772;2022-11-18T01:33:12;11.43;;;2.80;;
5774;SDS011;2913;51.120;6.772;2022-11-18T01:35:38;8.00;;;2.78;;
5774;SDS011;2913;51.120;6.772;2022-11-18T01:38:09;9.20;;;3.20;;
5774;SDS011;2913;51.120;6.772;2022-11-18T01:40:36;7.88;;;2.97;;
5774;SDS011;2913;51.120;6.772;2022-11-18T01:43:04;10.43;;;3.17;;
5774;SDS011;2913;51.120;6.772;2022-11-18T01:45:37;10.05;;;2.80;;
5774;SDS011;2913;51.120;6.772;2022-11-18T01:50:55;9.75;;;3.15;;
5774;SDS011;2913;51.120;6.772;2022-11-18T01:53:28;13.00;;;3.15;;
5774;SDS011;2913;51.120;6.772;2022-11-18T01:55:57;10.18;;;3.05;;
5774;SDS011;2913;51.120;6.772;2022-11-18T01:58:32;12.18;;;3.13;;
5774;SDS011;2913;51.120;6.772;2022-11-18T02:01:04;7.47;;;2.50;;
5774;SDS011;2913;51.120;6.772;2022-11-18T02:03:31;6.32;;;2.58;;
5774;SDS011;2913;51.120;6.772;2022-11-18T02:06:00;10.57;;;2.47;;
5774;SDS011;2913;51.120;6.772;2022-11-18T02:08:28;5.80;;;1.98;;
5774;SDS011;2913;51.120;6.772;2022-11-18T02:10:54;10.52;;;2.60;;
5774;SDS011;2913;51.120;6.772;2022-11-18T02:13:20;6.03;;;2.35;;
5774;SDS011;2913;51.120;6.772;2022-11-18T02:18:40;7.13;;;2.38;;
5774;SDS011;2913;51.120;6.772;2022-11-18T02:29:54;12.48;;;2.53;;
5774;SDS011;2913;51.120;6.772;2022-11-18T02:32:08;4.20;;;2.40;;
5774;SDS011;2913;51.120;6.772;2022-11-18T02:34:49;10.25;;;2.95;;
5774;SDS011;2913;51.120;6.772;2022-11-18T02:42:53;9.68;;;3.15;;
5774;SDS011;2913;51.120;6.772;2022-11-18T02:45:24;8.90;;;2.63;;
5774;SDS011;2913;51.120;6.772;2022-11-18T02:47:52;11.68;;;2.97;;
5774;SDS011;2913;51.120;6.772;2022-11-18T02:50:21;5.78;;;2.40;;
5774;SDS011;2913;51.120;6.772;2022-11-18T02:52:54;9.18;;;2.83;;
5774;SDS011;2913;51.120;6.772;2022-11-18T02:55:24;10.02;;;3.03;;
5774;SDS011;2913;51.120;6.772;2022-11-18T02:57:56;9.15;;;2.33;;
5774;SDS011;2913;51.120;6.772;2022-11-18T03:00:23;11.48;;;3.28;;
5774;SDS011;2913;51.120;6.772;2022-11-18T03:02:51;7.28;;;2.90;;
5774;SDS011;2913;51.120;6.772;2022-11-18T03:05:27;12.90;;;2.63;;
5774;SDS011;2913;51.120;6.772;2022-11-18T03:07:55;9.82;;;3.05;;
5774;SDS011;2913;51.120;6.772;2022-11-18T03:10:28;3.95;;;2.25;;
5774;SDS011;2913;51.120;6.772;2022-11-18T03:15:39;13.55;;;3.03;;
5774;SDS011;2913;51.120;6.772;2022-11-18T03:18:17;11.43;;;3.00;;
5774;SDS011;2913;51.120;6.772;2022-11-18T03:21:17;4.18;;;2.78;;
5774;SDS011;2913;51.120;6.772;2022-11-18T03:23:54;12.38;;;3.25;;
5774;SDS011;2913;51.120;6.772;2022-11-18T03:26:30;9.40;;;3.42;;
5774;SDS011;2913;51.120;6.772;2022-11-18T03:29:35;13.23;;;4.45;;
5774;SDS011;2913;51.120;6.772;2022-11-18T03:32:02;13.82;;;5.28;;
5774;SDS011;2913;51.120;6.772;2022-11-18T03:34:37;11.65;;;7.95;;
5774;SDS011;2913;51.120;6.772;2022-11-18T03:37:07;11.50;;;10.30;;
5774;SDS011;2913;51.120;6.772;2022-11-18T03:39:37;29.10;;;18.20;;
5774;SDS011;2913;51.120;6.772;2022-11-18T03:42:18;22.63;;;13.85;;
5774;SDS011;2913;51.120;6.772;2022-11-18T03:44:49;36.95;;;31.83;;
5774;SDS011;2913;51.120;6.772;2022-11-18T03:47:19;46.10;;;33.87;;
5774;SDS011;2913;51.120;6.772;2022-11-18T03:49:55;65.93;;;45.72;;
5774;SDS011;2913;51.120;6.772;2022-11-18T03:52:27;54.78;;;41.45;;
5774;SDS011;2913;51.120;6.772;2022-11-18T03:54:57;86.15;;;48.25;;
5774;SDS011;2913;51.120;6.772;2022-11-18T04:00:10;82.60;;;51.15;;
5774;SDS011;2913;51.120;6.772;2022-11-18T04:02:38;9.60;;;6.15;;
5774;SDS011;2913;51.120;6.772;2022-11-18T04:05:05;9.82;;;2.60;;
5774;SDS011;2913;51.120;6.772;2022-11-18T04:07:36;17.80;;;3.33;;
5774;SDS011;2913;51.120;6.772;2022-11-18T04:12:45;10.90;;;3.22;;
5774;SDS011;2913;51.120;6.772;2022-11-18T04:15:20;6.70;;;2.85;;
5774;SDS011;2913;51.120;6.772;2022-11-18T04:17:46;11.02;;;3.50;;
5774;SDS011;2913;51.120;6.772;2022-11-18T04:20:12;10.98;;;2.92;;
5774;SDS011;2913;51.120;6.772;2022-11-18T04:22:46;6.25;;;2.65;;
5774;SDS011;2913;51.120;6.772;2022-11-18T04:25:12;9.18;;;2.95;;
5774;SDS011;2913;51.120;6.772;2022-11-18T04:27:43;12.02;;;2.90;;
5774;SDS011;2913;51.120;6.772;2022-11-18T04:30:08;8.50;;;3.33;;
5774;SDS011;2913;51.120;6.772;2022-11-18T04:32:34;9.43;;;3.35;;
5774;SDS011;2913;51.120;6.772;2022-11-18T04:35:00;11.88;;;3.78;;
5774;SDS011;2913;51.120;6.772;2022-11-18T04:37:26;12.68;;;3.63;;
5774;SDS011;2913;51.120;6.772;2022-11-18T04:39:51;11.73;;;3.25;;
5774;SDS011;2913;51.120;6.772;2022-11-18T04:42:20;18.23;;;3.95;;
5774;SDS011;2913;51.120;6.772;2022-11-18T04:44:45;10.65;;;3.03;;
5774;SDS011;2913;51.120;6.772;2022-11-18T04:47:16;13.95;;;3.22;;
5774;SDS011;2913;51.120;6.772;2022-11-18T04:49:44;11.90;;;3.50;;
5774;SDS011;2913;51.120;6.772;2022-11-18T04:52:09;9.57;;;3.10;;
5774;SDS011;2913;51.120;6.772;2022-11-18T04:54:37;11.57;;;3.65;;
5774;SDS011;2913;51.120;6.772;2022-11-18T04:57:02;8.05;;;3.03;;
5774;SDS011;2913;51.120;6.772;2022-11-18T04:59:28;10.98;;;3.35;;
5774;SDS011;2913;51.120;6.772;2022-11-18T05:01:57;10.43;;;3.35;;
5774;SDS011;2913;51.120;6.772;2022-11-18T05:04:25;9.32;;;3.22;;
5774;SDS011;2913;51.120;6.772;2022-11-18T05:06:58;10.23;;;2.85;;
5774;SDS011;2913;51.120;6.772;2022-11-18T05:09:25;14.25;;;3.17;;
5774;SDS011;2913;51.120;6.772;2022-11-18T05:11:52;15.85;;;3.00;;
5774;SDS011;2913;51.120;6.772;2022-11-18T05:14:58;15.43;;;3.55;;
5774;SDS011;2913;51.120;6.772;2022-11-18T05:17:24;7.10;;;3.05;;
5774;SDS011;2913;51.120;6.772;2022-11-18T05:19:50;13.45;;;3.35;;
5774;SDS011;2913;51.120;6.772;2022-11-18T05:22:20;9.55;;;3.30;;
5774;SDS011;2913;51.120;6.772;2022-11-18T05:24:46;11.75;;;3.45;;
5774;SDS011;2913;51.120;6.772;2022-11-18T05:27:12;15.40;;;3.70;;
5774;SDS011;2913;51.120;6.772;2022-11-18T05:29:39;11.20;;;3.40;;
5774;SDS011;2913;51.120;6.772;2022-11-18T05:32:04;9.25;;;2.90;;
5774;SDS011;2913;51.120;6.772;2022-11-18T05:34:30;11.05;;;3.50;;
5774;SDS011;2913;51.120;6.772;2022-11-18T05:36:55;6.30;;;2.60;;
5774;SDS011;2913;51.120;6.772;2022-11-18T05:39:21;12.25;;;3.28;;
5774;SDS011;2913;51.120;6.772;2022-11-18T05:41:47;8.38;;;3.38;;
5774;SDS011;2913;51.120;6.772;2022-11-18T05:44:31;10.43;;;2.95;;
5774;SDS011;2913;51.120;6.772;2022-11-18T05:47:01;9.70;;;3.00;;
5774;SDS011;2913;51.120;6.772;2022-11-18T05:49:27;10.75;;;3.70;;
5774;SDS011;2913;51.120;6.772;2022-11-18T05:51:52;6.32;;;2.80;;
5774;SDS011;2913;51.120;6.772;2022-11-18T05:54:18;6.55;;;2.72;;
5774;SDS011;2913;51.120;6.772;2022-11-18T05:56:47;10.45;;;2.78;;
5774;SDS011;2913;51.120;6.772;2022-11-18T05:59:15;8.65;;;2.78;;
5774;SDS011;2913;51.120;6.772;2022-11-18T06:05:00;11.25;;;2.90;;
5774;SDS011;2913;51.120;6.772;2022-11-18T06:07:19;13.82;;;3.45;;
5774;SDS011;2913;51.120;6.772;2022-11-18T06:09:51;16.88;;;3.53;;
5774;SDS011;2913;51.120;6.772;2022-11-18T06:12:23;8.82;;;2.88;;
5774;SDS011;2913;51.120;6.772;2022-11-18T06:17:24;10.35;;;3.22;;
5774;SDS011;2913;51.120;6.772;2022-11-18T06:19:53;8.95;;;3.13;;
5774;SDS011;2913;51.120;6.772;2022-11-18T06:22:21;14.93;;;2.92;;
5774;SDS011;2913;51.120;6.772;2022-11-18T06:24:47;12.18;;;3.10;;
5774;SDS011;2913;51.120;6.772;2022-11-18T06:27:13;10.40;;;3.10;;
5774;SDS011;2913;51.120;6.772;2022-11-18T06:29:42;9.13;;;3.20;;
5774;SDS011;2913;51.120;6.772;2022-11-18T06:32:10;7.15;;;2.97;;
5774;SDS011;2913;51.120;6.772;2022-11-18T06:34:36;12.98;;;3.20;;
5774;SDS011;2913;51.120;6.772;2022-11-18T06:37:13;11.90;;;3.20;;
5774;SDS011;2913;51.120;6.772;2022-11-18T06:39:40;5.70;;;2.47;;
5774;SDS011;2913;51.120;6.772;2022-11-18T06:42:06;5.55;;;2.75;;
5774;SDS011;2913;51.120;6.772;2022-11-18T06:44:34;12.85;;;2.80;;
5774;SDS011;2913;51.120;6.772;2022-11-18T06:47:04;5.72;;;3.00;;
5774;SDS011;2913;51.120;6.772;2022-11-18T06:49:32;10.98;;;2.67;;
5774;SDS011;2913;51.120;6.772;2022-11-18T06:52:00;5.50;;;2.88;;
5774;SDS011;2913;51.120;6.772;2022-11-18T06:54:27;9.73;;;3.03;;
5774;SDS011;2913;51.120;6.772;2022-11-18T06:56:54;11.00;;;2.70;;
5774;SDS011;2913;51.120;6.772;2022-11-18T06:59:20;7.95;;;2.95;;
5774;SDS011;2913;51.120;6.772;2022-11-18T07:01:48;9.38;;;2.78;;
5774;SDS011;2913;51.120;6.772;2022-11-18T07:04:14;9.30;;;2.30;;
5774;SDS011;2913;51.120;6.772;2022-11-18T07:06:40;7.15;;;2.45;;
5774;SDS011;2913;51.120;6.772;2022-11-18T07:09:08;10.15;;;2.85;;
5774;SDS011;2913;51.120;6.772;2022-11-18T07:11:33;8.20;;;2.50;;
5774;SDS011;2913;51.120;6.772;2022-11-18T07:14:04;8.50;;;2.53;;
5774;SDS011;2913;51.120;6.772;2022-11-18T07:16:29;13.95;;;2.85;;
5774;SDS011;2913;51.120;6.772;2022-11-18T07:18:57;4.30;;;2.45;;
5774;SDS011;2913;51.120;6.772;2022-11-18T07:21:28;5.25;;;2.65;;
5774;SDS011;2913;51.120;6.772;2022-11-18T07:23:56;5.88;;;2.60;;
5774;SDS011;2913;51.120;6.772;2022-11-18T07:26:24;8.23;;;2.50;;
5774;SDS011;2913;51.120;6.772;2022-11-18T07:28:50;11.52;;;2.55;;
5774;SDS011;2913;51.120;6.772;2022-11-18T07:31:19;9.55;;;2.58;;
5774;SDS011;2913;51.120;6.772;2022-11-18T07:33:47;11.23;;;3.60;;
5774;SDS011;2913;51.120;6.772;2022-11-18T07:36:19;15.75;;;2.60;;
5774;SDS011;2913;51.120;6.772;2022-11-18T07:38:47;9.38;;;2.45;;
5774;SDS011;2913;51.120;6.772;2022-11-18T07:41:23;21.48;;;5.20;;
5774;SDS011;2913;51.120;6.772;2022-11-18T07:43:51;9.98;;;3.08;;
5774;SDS011;2913;51.120;6.772;2022-11-18T07:46:19;12.68;;;2.90;;
5774;SDS011;2913;51.120;6.772;2022-11-18T07:48:53;8.40;;;2.60;;
5774;SDS011;2913;51.120;6.772;2022-11-18T07:51:23;10.35;;;2.67;;
5774;SDS011;2913;51.120;6.772;2022-11-18T07:53:53;12.35;;;2.53;;
5774;SDS011;2913;51.120;6.772;2022-11-18T07:56:21;12.57;;;3.90;;
5774;SDS011;2913;51.120;6.772;2022-11-18T07:58:47;17.17;;;5.15;;
5774;SDS011;2913;51.120;6.772;2022-11-18T08:01:20;9.82;;;3.90;;
5774;SDS011;2913;51.120;6.772;2022-11-18T08:03:47;13.30;;;3.85;;
5774;SDS011;2913;51.120;6.772;2022-11-18T08:06:14;10.88;;;3.83;;
5774;SDS011;2913;51.120;6.772;2022-11-18T08:08:43;7.35;;;3.28;;
5774;SDS011;2913;51.120;6.772;2022-11-18T08:11:11;8.13;;;2.70;;
5774;SDS011;2913;51.120;6.772;2022-11-18T08:13:38;8.55;;;2.78;;
5774;SDS011;2913;51.120;6.772;2022-11-18T08:16:13;7.72;;;2.40;;
5774;SDS011;2913;51.120;6.772;2022-11-18T08:18:43;8.45;;;2.50;;
5774;SDS011;2913;51.120;6.772;2022-11-18T08:21:12;8.88;;;3.03;;
5774;SDS011;2913;51.120;6.772;2022-11-18T08:23:41;10.45;;;3.20;;
5774;SDS011;2913;51.120;6.772;2022-11-18T08:26:08;10.00;;;3.08;;
5774;SDS011;2913;51.120;6.772;2022-11-18T08:28:37;8.10;;;3.00;;
5774;SDS011;2913;51.120;6.772;2022-11-18T08:33:35;12.90;;;2.95;;
5774;SDS011;2913;51.120;6.772;2022-11-18T08:36:08;8.30;;;3.17;;
5774;SDS011;2913;51.120;6.772;2022-11-18T08:38:36;7.07;;;3.00;;
5774;SDS011;2913;51.120;6.772;2022-11-18T08:41:04;29.55;;;3.30;;
5774;SDS011;2913;51.120;6.772;2022-11-18T08:43:31;6.88;;;2.83;;
5774;SDS011;2913;51.120;6.772;2022-11-18T08:45:58;6.97;;;2.50;;
5774;SDS011;2913;51.120;6.772;2022-11-18T08:48:24;8.25;;;2.58;;
5774;SDS011;2913;51.120;6.772;2022-11-18T08:50:50;12.35;;;4.00;;
5774;SDS011;2913;51.120;6.772;2022-11-18T08:53:16;13.60;;;2.90;;
5774;SDS011;2913;51.120;6.772;2022-11-18T08:55:42;10.40;;;2.90;;
5774;SDS011;2913;51.120;6.772;2022-11-18T08:58:07;6.18;;;2.80;;
5774;SDS011;2913;51.120;6.772;2022-11-18T09:00:35;12.55;;;2.90;;
5774;SDS011;2913;51.120;6.772;2022-11-18T09:03:01;12.50;;;3.10;;
5774;SDS011;2913;51.120;6.772;2022-11-18T09:05:29;7.63;;;3.47;;
5774;SDS011;2913;51.120;6.772;2022-11-18T09:07:54;14.20;;;4.25;;
5774;SDS011;2913;51.120;6.772;2022-11-18T09:10:25;14.38;;;3.10;;
5774;SDS011;2913;51.120;6.772;2022-11-18T09:12:52;11.55;;;3.72;;
5774;SDS011;2913;51.120;6.772;2022-11-18T09:15:18;9.57;;;3.40;;
5774;SDS011;2913;51.120;6.772;2022-11-18T09:17:43;6.88;;;3.60;;
5774;SDS011;2913;51.120;6.772;2022-11-18T09:20:09;7.32;;;3.20;;
5774;SDS011;2913;51.120;6.772;2022-11-18T09:22:35;11.40;;;3.47;;
5774;SDS011;2913;51.120;6.772;2022-11-18T09:25:01;13.95;;;3.78;;
5774;SDS011;2913;51.120;6.772;2022-11-18T09:27:27;13.02;;;3.42;;
5774;SDS011;2913;51.120;6.772;2022-11-18T09:29:53;14.63;;;3.95;;
5774;SDS011;2913;51.120;6.772;2022-11-18T09:32:18;9.60;;;3.10;;
5774;SDS011;2913;51.120;6.772;2022-11-18T09:34:46;10.57;;;3.33;;
5774;SDS011;2913;51.120;6.772;2022-11-18T09:37:12;11.05;;;4.32;;
5774;SDS011;2913;51.120;6.772;2022-11-18T09:39:37;9.55;;;3.00;;
5774;SDS011;2913;51.120;6.772;2022-11-18T09:49:56;12.25;;;2.80;;
5774;SDS011;2913;51.120;6.772;2022-11-18T09:52:28;15.88;;;2.97;;
5774;SDS011;2913;51.120;6.772;2022-11-18T09:54:58;8.48;;;2.60;;
5774;SDS011;2913;51.120;6.772;2022-11-18T09:59:52;8.60;;;3.08;;
5774;SDS011;2913;51.120;6.772;2022-11-18T10:04:55;10.10;;;2.80;;
5774;SDS011;2913;51.120;6.772;2022-11-18T10:07:29;14.10;;;2.65;;
5774;SDS011;2913;51.120;6.772;2022-11-18T10:10:10;10.93;;;4.00;;
5774;SDS011;2913;51.120;6.772;2022-11-18T10:12:48;12.68;;;3.03;;
5774;SDS011;2913;51.120;6.772;2022-11-18T10:15:24;8.05;;;2.83;;
5774;SDS011;2913;51.120;6.772;2022-11-18T10:26:32;7.43;;;2.97;;
5774;SDS011;2913;51.120;6.772;2022-11-18T10:29:00;5.70;;;3.00;;
5774;SDS011;2913;51.120;6.772;2022-11-18T10:31:26;7.50;;;2.13;;
5774;SDS011;2913;51.120;6.772;2022-11-18T10:33:59;9.60;;;2.72;;
5774;SDS011;2913;51.120;6.772;2022-11-18T10:36:27;13.15;;;2.78;;
5774;SDS011;2913;51.120;6.772;2022-11-18T10:39:15;8.43;;;2.40;;
5774;SDS011;2913;51.120;6.772;2022-11-18T10:41:47;6.10;;;2.65;;
5774;SDS011;2913;51.120;6.772;2022-11-18T10:49:47;8.98;;;2.15;;
5774;SDS011;2913;51.120;6.772;2022-11-18T10:52:15;9.00;;;2.40;;
5774;SDS011;2913;51.120;6.772;2022-11-18T10:54:43;4.20;;;2.15;;
5774;SDS011;2913;51.120;6.772;2022-11-18T10:57:20;13.23;;;2.53;;
5774;SDS011;2913;51.120;6.772;2022-11-18T10:59:56;6.30;;;2.42;;
5774;SDS011;2913;51.120;6.772;2022-11-18T11:02:40;6.05;;;2.30;;
5774;SDS011;2913;51.120;6.772;2022-11-18T11:05:16;14.50;;;2.17;;
5774;SDS011;2913;51.120;6.772;2022-11-18T11:07:51;11.35;;;2.28;;
5774;SDS011;2913;51.120;6.772;2022-11-18T11:10:52;18.08;;;2.13;;
5774;SDS011;2913;51.120;6.772;2022-11-18T11:13:24;9.27;;;2.83;;
5774;SDS011;2913;51.120;6.772;2022-11-18T11:15:55;18.58;;;2.40;;
5774;SDS011;2913;51.120;6.772;2022-11-18T11:18:27;22.20;;;3.35;;
5774;SDS011;2913;51.120;6.772;2022-11-18T11:21:13;7.30;;;2.13;;
5774;SDS011;2913;51.120;6.772;2022-11-18T11:29:31;11.18;;;2.60;;
5774;SDS011;2913;51.120;6.772;2022-11-18T11:34:35;13.85;;;2.00;;
5774;SDS011;2913;51.120;6.772;2022-11-18T11:40:15;8.43;;;2.00;;
5774;SDS011;2913;51.120;6.772;2022-11-18T11:50:53;8.68;;;1.50;;
5774;SDS011;2913;51.120;6.772;2022-11-18T11:56:26;10.18;;;2.00;;
5774;SDS011;2913;51.120;6.772;2022-11-18T12:07:41;11.65;;;1.50;;
5774;SDS011;2913;51.120;6.772;2022-11-18T12:10:45;8.93;;;1.63;;
5774;SDS011;2913;51.120;6.772;2022-11-18T12:26:55;6.03;;;1.70;;
5774;SDS011;2913;51.120;6.772;2022-11-18T12:43:03;14.32;;;2.15;;
5774;SDS011;2913;51.120;6.772;2022-11-18T12:46:08;8.23;;;1.85;;
5774;SDS011;2913;51.120;6.772;2022-11-18T12:48:40;10.88;;;1.73;;
5774;SDS011;2913;51.120;6.772;2022-11-18T12:53:44;7.25;;;1.70;;
5774;SDS011;2913;51.120;6.772;2022-11-18T12:58:47;5.57;;;1.40;;
5774;SDS011;2913;51.120;6.772;2022-11-18T13:01:15;9.65;;;2.33;;
5774;SDS011;2913;51.120;6.772;2022-11-18T13:03:43;6.10;;;1.35;;
5774;SDS011;2913;51.120;6.772;2022-11-18T13:06:29;6.15;;;1.55;;
5774;SDS011;2913;51.120;6.772;2022-11-18T13:08:57;18.92;;;1.95;;
5774;SDS011;2913;51.120;6.772;2022-11-18T13:11:26;7.63;;;1.52;;
5774;SDS011;2913;51.120;6.772;2022-11-18T13:14:17;7.53;;;1.70;;
5774;SDS011;2913;51.120;6.772;2022-11-18T13:34:24;3.63;;;1.52;;
5774;SDS011;2913;51.120;6.772;2022-11-18T13:36:53;11.82;;;2.10;;
5774;SDS011;2913;51.120;6.772;2022-11-18T13:39:24;13.85;;;3.15;;
5774;SDS011;2913;51.120;6.772;2022-11-18T13:41:59;6.30;;;1.77;;
5774;SDS011;2913;51.120;6.772;2022-11-18T13:44:30;10.82;;;1.90;;
5774;SDS011;2913;51.120;6.772;2022-11-18T13:47:03;14.80;;;2.67;;
5774;SDS011;2913;51.120;6.772;2022-11-18T13:50:14;11.93;;;2.20;;
5774;SDS011;2913;51.120;6.772;2022-11-18T13:52:33;14.95;;;2.28;;
5774;SDS011;2913;51.120;6.772;2022-11-18T13:55:06;9.20;;;2.30;;
5774;SDS011;2913;51.120;6.772;2022-11-18T13:57:38;17.40;;;3.08;;
5774;SDS011;2913;51.120;6.772;2022-11-18T14:00:18;10.65;;;2.17;;
5774;SDS011;2913;51.120;6.772;2022-11-18T14:02:53;14.90;;;2.92;;
5774;SDS011;2913;51.120;6.772;2022-11-18T14:05:23;16.67;;;2.97;;
5774;SDS011;2913;51.120;6.772;2022-11-18T14:07:56;8.38;;;2.53;;
5774;SDS011;2913;51.120;6.772;2022-11-18T14:10:40;7.38;;;2.70;;
5774;SDS011;2913;51.120;6.772;2022-11-18T14:13:16;16.45;;;3.83;;
5774;SDS011;2913;51.120;6.772;2022-11-18T14:15:56;14.02;;;2.30;;
5774;SDS011;2913;51.120;6.772;2022-11-18T14:21:01;8.82;;;2.33;;
5774;SDS011;2913;51.120;6.772;2022-11-18T14:23:35;7.90;;;2.35;;
5774;SDS011;2913;51.120;6.772;2022-11-18T14:26:04;7.35;;;2.10;;
5774;SDS011;2913;51.120;6.772;2022-11-18T14:28:31;13.13;;;2.30;;
5774;SDS011;2913;51.120;6.772;2022-11-18T14:36:36;11.13;;;2.83;;
5774;SDS011;2913;51.120;6.772;2022-11-18T14:39:04;13.82;;;2.85;;
5774;SDS011;2913;51.120;6.772;2022-11-18T14:41:50;13.38;;;3.03;;
5774;SDS011;2913;51.120;6.772;2022-11-18T14:44:17;14.50;;;3.08;;
5774;SDS011;2913;51.120;6.772;2022-11-18T14:46:48;8.52;;;3.53;;
5774;SDS011;2913;51.120;6.772;2022-11-18T14:49:29;12.93;;;3.17;;
5774;SDS011;2913;51.120;6.772;2022-11-18T14:51:56;10.48;;;3.05;;
5774;SDS011;2913;51.120;6.772;2022-11-18T14:54:26;10.05;;;3.38;;
5774;SDS011;2913;51.120;6.772;2022-11-18T14:56:55;13.55;;;2.95;;
5774;SDS011;2913;51.120;6.772;2022-11-18T14:59:23;15.25;;;3.30;;
5774;SDS011;2913;51.120;6.772;2022-11-18T15:01:51;15.50;;;3.20;;
5774;SDS011;2913;51.120;6.772;2022-11-18T15:04:20;12.95;;;2.70;;
5774;SDS011;2913;51.120;6.772;2022-11-18T15:06:45;10.80;;;3.28;;
5774;SDS011;2913;51.120;6.772;2022-11-18T15:09:13;8.90;;;3.17;;
5774;SDS011;2913;51.120;6.772;2022-11-18T15:11:41;14.23;;;3.25;;
5774;SDS011;2913;51.120;6.772;2022-11-18T15:14:09;13.18;;;3.97;;
5774;SDS011;2913;51.120;6.772;2022-11-18T15:16:35;23.00;;;8.82;;
5774;SDS011;2913;51.120;6.772;2022-11-18T15:19:02;14.85;;;3.85;;
5774;SDS011;2913;51.120;6.772;2022-11-18T15:21:29;17.77;;;5.97;;
5774;SDS011;2913;51.120;6.772;2022-11-18T15:23:57;12.20;;;4.47;;
5774;SDS011;2913;51.120;6.772;2022-11-18T15:26:27;14.82;;;3.63;;
5774;SDS011;2913;51.120;6.772;2022-11-18T15:28:57;8.88;;;2.60;;
5774;SDS011;2913;51.120;6.772;2022-11-18T15:31:23;19.08;;;7.65;;
5774;SDS011;2913;51.120;6.772;2022-11-18T15:33:49;26.20;;;7.68;;
5774;SDS011;2913;51.120;6.772;2022-11-18T15:36:16;22.55;;;10.32;;
5774;SDS011;2913;51.120;6.772;2022-11-18T15:38:42;19.10;;;8.98;;
5774;SDS011;2913;51.120;6.772;2022-11-18T15:41:20;21.15;;;7.20;;
5774;SDS011;2913;51.120;6.772;2022-11-18T15:43:49;17.48;;;7.03;;
5774;SDS011;2913;51.120;6.772;2022-11-18T15:46:15;31.55;;;10.85;;
5774;SDS011;2913;51.120;6.772;2022-11-18T15:48:45;11.88;;;4.82;;
5774;SDS011;2913;51.120;6.772;2022-11-18T15:51:12;10.35;;;3.60;;
5774;SDS011;2913;51.120;6.772;2022-11-18T15:53:41;11.73;;;4.18;;
5774;SDS011;2913;51.120;6.772;2022-11-18T15:58:56;13.05;;;4.40;;
5774;SDS011;2913;51.120;6.772;2022-11-18T16:01:26;10.05;;;3.17;;
5774;SDS011;2913;51.120;6.772;2022-11-18T16:03:53;22.60;;;6.22;;
5774;SDS011;2913;51.120;6.772;2022-11-18T16:06:22;11.32;;;5.60;;
5774;SDS011;2913;51.120;6.772;2022-11-18T16:08:48;11.65;;;3.53;;
5774;SDS011;2913;51.120;6.772;2022-11-18T16:11:15;20.00;;;8.20;;
5774;SDS011;2913;51.120;6.772;2022-11-18T16:14:03;12.25;;;4.03;;
5774;SDS011;2913;51.120;6.772;2022-11-18T16:16:31;8.48;;;2.97;;
5774;SDS011;2913;51.120;6.772;2022-11-18T16:18:58;14.60;;;3.63;;
5774;SDS011;2913;51.120;6.772;2022-11-18T16:21:25;10.75;;;3.55;;
5774;SDS011;2913;51.120;6.772;2022-11-18T16:23:59;9.38;;;3.50;;
5774;SDS011;2913;51.120;6.772;2022-11-18T16:26:27;11.13;;;4.25;;
5774;SDS011;2913;51.120;6.772;2022-11-18T16:28:54;19.75;;;4.65;;
5774;SDS011;2913;51.120;6.772;2022-11-18T16:31:21;10.30;;;4.32;;
5774;SDS011;2913;51.120;6.772;2022-11-18T16:34:06;16.60;;;5.32;;
5774;SDS011;2913;51.120;6.772;2022-11-18T16:36:33;26.95;;;10.07;;
5774;SDS011;2913;51.120;6.772;2022-11-18T16:39:03;18.63;;;7.82;;
5774;SDS011;2913;51.120;6.772;2022-11-18T16:41:35;21.08;;;6.68;;
5774;SDS011;2913;51.120;6.772;2022-11-18T16:44:02;16.20;;;6.03;;
5774;SDS011;2913;51.120;6.772;2022-11-18T16:46:30;26.90;;;7.97;;
5774;SDS011;2913;51.120;6.772;2022-11-18T16:48:57;17.15;;;6.43;;
5774;SDS011;2913;51.120;6.772;2022-11-18T16:51:27;27.23;;;6.75;;
5774;SDS011;2913;51.120;6.772;2022-11-18T16:53:55;17.27;;;4.97;;
5774;SDS011;2913;51.120;6.772;2022-11-18T16:56:25;19.00;;;5.32;;
5774;SDS011;2913;51.120;6.772;2022-11-18T16:58:57;16.20;;;5.60;;
5774;SDS011;2913;51.120;6.772;2022-11-18T17:01:22;18.63;;;6.05;;
5774;SDS011;2913;51.120;6.772;2022-11-18T17:03:49;9.85;;;5.10;;
5774;SDS011;2913;51.120;6.772;2022-11-18T17:06:19;11.10;;;5.53;;
5774;SDS011;2913;51.120;6.772;2022-11-18T17:08:48;20.33;;;5.75;;
5774;SDS011;2913;51.120;6.772;2022-11-18T17:11:16;18.67;;;5.88;;
5774;SDS011;2913;51.120;6.772;2022-11-18T17:13:42;26.98;;;6.75;;
5774;SDS011;2913;51.120;6.772;2022-11-18T17:16:09;18.73;;;6.63;;
5774;SDS011;2913;51.120;6.772;2022-11-18T17:18:37;19.63;;;6.07;;
5774;SDS011;2913;51.120;6.772;2022-11-18T17:23:30;18.48;;;4.68;;
5774;SDS011;2913;51.120;6.772;2022-11-18T17:25:58;19.63;;;6.38;;
5774;SDS011;2913;51.120;6.772;2022-11-18T17:28:24;12.85;;;5.30;;
5774;SDS011;2913;51.120;6.772;2022-11-18T17:30:50;16.05;;;6.95;;
5774;SDS011;2913;51.120;6.772;2022-11-18T17:33:16;19.52;;;6.05;;
5774;SDS011;2913;51.120;6.772;2022-11-18T17:35:41;18.17;;;7.25;;
5774;SDS011;2913;51.120;6.772;2022-11-18T17:38:21;19.48;;;7.03;;
5774;SDS011;2913;51.120;6.772;2022-11-18T17:40:51;23.80;;;8.45;;
5774;SDS011;2913;51.120;6.772;2022-11-18T17:43:21;29.70;;;9.57;;
5774;SDS011;2913;51.120;6.772;2022-11-18T17:45:54;27.63;;;12.57;;
5774;SDS011;2913;51.120;6.772;2022-11-18T17:48:21;23.95;;;8.73;;
5774;SDS011;2913;51.120;6.772;2022-11-18T17:50:49;22.55;;;10.50;;
5774;SDS011;2913;51.120;6.772;2022-11-18T17:53:15;17.67;;;8.93;;
5774;SDS011;2913;51.120;6.772;2022-11-18T17:55:44;21.77;;;8.70;;
5774;SDS011;2913;51.120;6.772;2022-11-18T17:58:10;18.48;;;8.38;;
5774;SDS011;2913;51.120;6.772;2022-11-18T18:00:37;21.67;;;8.40;;